Pagrindinis puslapis
METAR-TAF:

METAR-TAF

Oro uostai :

Ipjalesas, Kolumbija

platuma: 00-49N, ilguma: 077-38W, Aukštis: 2961 m

Dabartinis oras

Ataskaita buvo paskelbta 2 valandos ir 15 minutes, ne 22:00 UTC
Vėjas 3 kt iš Šiaurės/Šiaurės Rytų
Temperatūra 11°C
Drėgmė 94%
Slėgis 1026 hPa
Matomumas 10 km arba daugiau
Su prošvaistėmis ne aukštis 1600 ft
Liūtis kaimynystėje

METAR: SKIP 222200Z 03003KT 9999 VCSH BKN016 11/10 A3030 REARA

Laikas: 19:15 (00:15 UTC)


TAF: trūkstamas

Orai ataskaitas ir orų prognozės (METAR, TAF).

turimą stotys yra geltonos ir raudonos taškus žemėlapyje.

Perkelti pele per norėdami pamatyti stoties vardą.

Tada spustelėkite, norėdami matyti oro stebėjimo ir prognozės.

Norėdami pakeisti žemėlapį: spustelėkite ant žalios mygtukų su juodo kryžiaus žemyn,; žalią mygtuką su brūkšneliu, jei norite nutolinti; arba žalių rodyklių gretimoms žemėlapius.


METAR-TAF: